sensor_id;sensor_type;location;lat;lon;timestamp;P1;durP1;ratioP1;P2;durP2;ratioP2
13455;SDS011;6800;50.940;6.940;2023-06-24T00:01:04;9.10;;;8.20;;
13455;SDS011;6800;50.940;6.940;2023-06-24T00:05:07;12.13;;;11.02;;
13455;SDS011;6800;50.940;6.940;2023-06-24T00:09:09;13.48;;;12.07;;
13455;SDS011;6800;50.940;6.940;2023-06-24T00:13:10;9.07;;;8.18;;
13455;SDS011;6800;50.940;6.940;2023-06-24T00:17:12;9.85;;;8.90;;
13455;SDS011;6800;50.940;6.940;2023-06-24T00:21:13;9.68;;;8.45;;
13455;SDS011;6800;50.940;6.940;2023-06-24T00:25:18;10.20;;;9.10;;
13455;SDS011;6800;50.940;6.940;2023-06-24T00:29:19;11.68;;;9.38;;
13455;SDS011;6800;50.940;6.940;2023-06-24T00:33:21;12.15;;;9.35;;
13455;SDS011;6800;50.940;6.940;2023-06-24T00:37:22;13.13;;;10.23;;
13455;SDS011;6800;50.940;6.940;2023-06-24T00:41:24;10.13;;;8.75;;
13455;SDS011;6800;50.940;6.940;2023-06-24T00:45:26;9.48;;;8.57;;
13455;SDS011;6800;50.940;6.940;2023-06-24T00:49:27;8.85;;;7.97;;
13455;SDS011;6800;50.940;6.940;2023-06-24T00:53:29;9.15;;;8.25;;
13455;SDS011;6800;50.940;6.940;2023-06-24T00:57:30;11.77;;;10.38;;
13455;SDS011;6800;50.940;6.940;2023-06-24T01:01:32;10.55;;;9.55;;
13455;SDS011;6800;50.940;6.940;2023-06-24T01:05:36;10.30;;;9.30;;
13455;SDS011;6800;50.940;6.940;2023-06-24T01:09:37;11.70;;;10.07;;
13455;SDS011;6800;50.940;6.940;2023-06-24T01:13:39;10.93;;;9.98;;
13455;SDS011;6800;50.940;6.940;2023-06-24T01:17:53;11.32;;;10.15;;
13455;SDS011;6800;50.940;6.940;2023-06-24T01:22:29;12.65;;;11.38;;
13455;SDS011;6800;50.940;6.940;2023-06-24T01:35:07;11.05;;;9.95;;
13455;SDS011;6800;50.940;6.940;2023-06-24T01:39:13;11.88;;;10.68;;
13455;SDS011;6800;50.940;6.940;2023-06-24T01:43:19;10.55;;;9.63;;
13455;SDS011;6800;50.940;6.940;2023-06-24T01:47:25;11.20;;;10.00;;
13455;SDS011;6800;50.940;6.940;2023-06-24T01:51:28;12.25;;;11.05;;
13455;SDS011;6800;50.940;6.940;2023-06-24T01:55:31;14.93;;;13.55;;
13455;SDS011;6800;50.940;6.940;2023-06-24T01:59:36;11.75;;;10.75;;
13455;SDS011;6800;50.940;6.940;2023-06-24T02:03:41;11.95;;;10.88;;
13455;SDS011;6800;50.940;6.940;2023-06-24T02:07:45;11.75;;;10.75;;
13455;SDS011;6800;50.940;6.940;2023-06-24T02:11:49;11.40;;;10.20;;
13455;SDS011;6800;50.940;6.940;2023-06-24T02:15:51;12.15;;;10.95;;
13455;SDS011;6800;50.940;6.940;2023-06-24T02:19:55;13.00;;;11.10;;
13455;SDS011;6800;50.940;6.940;2023-06-24T02:23:58;11.52;;;10.52;;
13455;SDS011;6800;50.940;6.940;2023-06-24T02:28:00;13.13;;;11.73;;
13455;SDS011;6800;50.940;6.940;2023-06-24T02:32:02;13.48;;;12.27;;
13455;SDS011;6800;50.940;6.940;2023-06-24T02:36:04;11.88;;;10.80;;
13455;SDS011;6800;50.940;6.940;2023-06-24T02:40:06;12.65;;;11.45;;
13455;SDS011;6800;50.940;6.940;2023-06-24T02:44:09;12.45;;;10.75;;
13455;SDS011;6800;50.940;6.940;2023-06-24T02:48:10;12.48;;;11.32;;
13455;SDS011;6800;50.940;6.940;2023-06-24T02:52:13;10.98;;;10.02;;
13455;SDS011;6800;50.940;6.940;2023-06-24T02:56:16;11.48;;;10.35;;
13455;SDS011;6800;50.940;6.940;2023-06-24T03:00:22;11.88;;;10.65;;
13455;SDS011;6800;50.940;6.940;2023-06-24T03:04:23;11.27;;;10.18;;
13455;SDS011;6800;50.940;6.940;2023-06-24T03:08:25;10.73;;;9.70;;
13455;SDS011;6800;50.940;6.940;2023-06-24T03:12:28;10.43;;;9.40;;
13455;SDS011;6800;50.940;6.940;2023-06-24T03:16:30;11.32;;;10.35;;
13455;SDS011;6800;50.940;6.940;2023-06-24T03:20:32;10.30;;;9.30;;
13455;SDS011;6800;50.940;6.940;2023-06-24T03:24:39;11.23;;;9.98;;
13455;SDS011;6800;50.940;6.940;2023-06-24T03:28:41;10.75;;;9.75;;
13455;SDS011;6800;50.940;6.940;2023-06-24T03:32:42;11.13;;;9.98;;
13455;SDS011;6800;50.940;6.940;2023-06-24T03:36:48;10.63;;;9.52;;
13455;SDS011;6800;50.940;6.940;2023-06-24T03:40:49;10.32;;;9.27;;
13455;SDS011;6800;50.940;6.940;2023-06-24T03:44:50;10.32;;;9.43;;
13455;SDS011;6800;50.940;6.940;2023-06-24T03:48:52;12.73;;;9.95;;
13455;SDS011;6800;50.940;6.940;2023-06-24T03:52:53;10.70;;;9.60;;
13455;SDS011;6800;50.940;6.940;2023-06-24T03:56:55;10.45;;;9.55;;
13455;SDS011;6800;50.940;6.940;2023-06-24T04:00:58;15.25;;;9.82;;
13455;SDS011;6800;50.940;6.940;2023-06-24T04:05:01;10.00;;;9.10;;
13455;SDS011;6800;50.940;6.940;2023-06-24T04:09:02;10.77;;;9.77;;
13455;SDS011;6800;50.940;6.940;2023-06-24T04:13:04;9.85;;;9.05;;
13455;SDS011;6800;50.940;6.940;2023-06-24T04:17:05;9.98;;;9.00;;
13455;SDS011;6800;50.940;6.940;2023-06-24T04:21:07;9.48;;;8.55;;
13455;SDS011;6800;50.940;6.940;2023-06-24T04:25:08;11.18;;;10.27;;
13455;SDS011;6800;50.940;6.940;2023-06-24T04:29:10;11.25;;;9.23;;
13455;SDS011;6800;50.940;6.940;2023-06-24T04:33:11;11.35;;;10.23;;
13455;SDS011;6800;50.940;6.940;2023-06-24T04:37:13;10.50;;;9.52;;
13455;SDS011;6800;50.940;6.940;2023-06-24T04:41:14;10.60;;;9.65;;
13455;SDS011;6800;50.940;6.940;2023-06-24T04:45:16;9.75;;;8.63;;
13455;SDS011;6800;50.940;6.940;2023-06-24T04:49:18;9.63;;;8.82;;
13455;SDS011;6800;50.940;6.940;2023-06-24T04:53:19;10.15;;;9.25;;
13455;SDS011;6800;50.940;6.940;2023-06-24T04:57:26;10.00;;;9.02;;
13455;SDS011;6800;50.940;6.940;2023-06-24T05:01:28;10.02;;;9.07;;
13455;SDS011;6800;50.940;6.940;2023-06-24T05:05:30;10.48;;;8.88;;
13455;SDS011;6800;50.940;6.940;2023-06-24T05:09:36;10.07;;;8.43;;
13455;SDS011;6800;50.940;6.940;2023-06-24T05:13:40;10.43;;;9.52;;
13455;SDS011;6800;50.940;6.940;2023-06-24T05:17:42;11.05;;;9.10;;
13455;SDS011;6800;50.940;6.940;2023-06-24T05:21:43;11.30;;;9.45;;
13455;SDS011;6800;50.940;6.940;2023-06-24T05:25:45;11.98;;;9.35;;
13455;SDS011;6800;50.940;6.940;2023-06-24T05:29:47;10.00;;;9.10;;
13455;SDS011;6800;50.940;6.940;2023-06-24T05:33:48;9.50;;;8.70;;
13455;SDS011;6800;50.940;6.940;2023-06-24T05:37:49;9.68;;;8.48;;
13455;SDS011;6800;50.940;6.940;2023-06-24T05:41:51;10.00;;;9.13;;
13455;SDS011;6800;50.940;6.940;2023-06-24T05:45:52;11.02;;;9.63;;
13455;SDS011;6800;50.940;6.940;2023-06-24T05:49:54;10.73;;;9.63;;
13455;SDS011;6800;50.940;6.940;2023-06-24T05:53:57;8.80;;;8.05;;
13455;SDS011;6800;50.940;6.940;2023-06-24T05:57:59;10.05;;;8.85;;
13455;SDS011;6800;50.940;6.940;2023-06-24T06:02:00;9.10;;;8.18;;
13455;SDS011;6800;50.940;6.940;2023-06-24T06:06:02;10.02;;;9.02;;
13455;SDS011;6800;50.940;6.940;2023-06-24T06:10:05;8.18;;;7.38;;
13455;SDS011;6800;50.940;6.940;2023-06-24T06:14:07;8.25;;;7.40;;
13455;SDS011;6800;50.940;6.940;2023-06-24T06:18:08;8.07;;;7.28;;
13455;SDS011;6800;50.940;6.940;2023-06-24T06:22:10;7.82;;;7.00;;
13455;SDS011;6800;50.940;6.940;2023-06-24T06:26:11;8.73;;;7.07;;
13455;SDS011;6800;50.940;6.940;2023-06-24T06:30:13;7.80;;;7.10;;
13455;SDS011;6800;50.940;6.940;2023-06-24T06:34:15;7.47;;;6.60;;
13455;SDS011;6800;50.940;6.940;2023-06-24T06:38:16;7.65;;;6.85;;
13455;SDS011;6800;50.940;6.940;2023-06-24T06:42:21;7.53;;;6.80;;
13455;SDS011;6800;50.940;6.940;2023-06-24T06:46:22;7.28;;;6.68;;
13455;SDS011;6800;50.940;6.940;2023-06-24T06:50:24;11.63;;;10.52;;
13455;SDS011;6800;50.940;6.940;2023-06-24T06:54:25;10.98;;;9.90;;
13455;SDS011;6800;50.940;6.940;2023-06-24T06:58:27;7.28;;;6.47;;
13455;SDS011;6800;50.940;6.940;2023-06-24T07:02:28;7.85;;;7.13;;
13455;SDS011;6800;50.940;6.940;2023-06-24T07:06:30;9.50;;;7.13;;
13455;SDS011;6800;50.940;6.940;2023-06-24T07:10:33;7.80;;;7.00;;
13455;SDS011;6800;50.940;6.940;2023-06-24T07:14:35;6.63;;;6.00;;
13455;SDS011;6800;50.940;6.940;2023-06-24T07:18:39;6.68;;;5.85;;
13455;SDS011;6800;50.940;6.940;2023-06-24T07:22:40;6.40;;;5.60;;
13455;SDS011;6800;50.940;6.940;2023-06-24T07:26:42;5.68;;;5.10;;
13455;SDS011;6800;50.940;6.940;2023-06-24T07:30:43;6.38;;;5.35;;
13455;SDS011;6800;50.940;6.940;2023-06-24T07:34:45;6.53;;;5.20;;
13455;SDS011;6800;50.940;6.940;2023-06-24T07:38:46;6.93;;;4.60;;
13455;SDS011;6800;50.940;6.940;2023-06-24T07:42:48;6.95;;;4.82;;
13455;SDS011;6800;50.940;6.940;2023-06-24T07:46:49;6.00;;;4.53;;
13455;SDS011;6800;50.940;6.940;2023-06-24T07:50:52;6.47;;;4.88;;
13455;SDS011;6800;50.940;6.940;2023-06-24T07:54:53;6.13;;;4.40;;
13455;SDS011;6800;50.940;6.940;2023-06-24T07:58:55;6.32;;;4.80;;
13455;SDS011;6800;50.940;6.940;2023-06-24T08:02:57;6.63;;;4.35;;
13455;SDS011;6800;50.940;6.940;2023-06-24T08:06:59;6.03;;;5.03;;
13455;SDS011;6800;50.940;6.940;2023-06-24T08:11:01;7.78;;;5.20;;
13455;SDS011;6800;50.940;6.940;2023-06-24T08:15:04;6.20;;;4.70;;
13455;SDS011;6800;50.940;6.940;2023-06-24T08:19:05;5.53;;;4.75;;
13455;SDS011;6800;50.940;6.940;2023-06-24T08:23:07;5.72;;;5.22;;
13455;SDS011;6800;50.940;6.940;2023-06-24T08:27:10;7.95;;;4.93;;
13455;SDS011;6800;50.940;6.940;2023-06-24T08:31:12;5.90;;;5.30;;
13455;SDS011;6800;50.940;6.940;2023-06-24T08:35:13;6.57;;;5.30;;
13455;SDS011;6800;50.940;6.940;2023-06-24T08:39:15;7.68;;;5.97;;
13455;SDS011;6800;50.940;6.940;2023-06-24T08:43:17;7.18;;;5.97;;
13455;SDS011;6800;50.940;6.940;2023-06-24T08:47:18;8.20;;;6.03;;
13455;SDS011;6800;50.940;6.940;2023-06-24T08:51:20;6.55;;;5.93;;
13455;SDS011;6800;50.940;6.940;2023-06-24T08:55:25;7.32;;;6.55;;
13455;SDS011;6800;50.940;6.940;2023-06-24T08:59:31;6.82;;;5.78;;
13455;SDS011;6800;50.940;6.940;2023-06-24T09:03:32;5.63;;;5.07;;
13455;SDS011;6800;50.940;6.940;2023-06-24T09:07:34;5.90;;;5.30;;
13455;SDS011;6800;50.940;6.940;2023-06-24T09:11:36;6.05;;;5.45;;
13455;SDS011;6800;50.940;6.940;2023-06-24T09:15:37;5.90;;;5.20;;
13455;SDS011;6800;50.940;6.940;2023-06-24T09:19:39;6.72;;;6.07;;
13455;SDS011;6800;50.940;6.940;2023-06-24T09:23:41;6.72;;;5.80;;
13455;SDS011;6800;50.940;6.940;2023-06-24T09:27:46;7.28;;;5.18;;
13455;SDS011;6800;50.940;6.940;2023-06-24T09:31:49;6.40;;;4.72;;
13455;SDS011;6800;50.940;6.940;2023-06-24T09:35:53;5.38;;;4.60;;
13455;SDS011;6800;50.940;6.940;2023-06-24T09:39:58;5.22;;;4.70;;
13455;SDS011;6800;50.940;6.940;2023-06-24T09:43:59;5.95;;;4.65;;
13455;SDS011;6800;50.940;6.940;2023-06-24T09:48:01;6.30;;;4.47;;
13455;SDS011;6800;50.940;6.940;2023-06-24T09:52:03;6.00;;;4.47;;
13455;SDS011;6800;50.940;6.940;2023-06-24T09:56:07;4.70;;;4.30;;
13455;SDS011;6800;50.940;6.940;2023-06-24T10:00:09;6.57;;;5.10;;
13455;SDS011;6800;50.940;6.940;2023-06-24T10:04:13;4.25;;;3.50;;
13455;SDS011;6800;50.940;6.940;2023-06-24T10:08:17;4.38;;;3.67;;
13455;SDS011;6800;50.940;6.940;2023-06-24T10:12:19;4.18;;;3.53;;
13455;SDS011;6800;50.940;6.940;2023-06-24T10:16:20;6.35;;;3.60;;
13455;SDS011;6800;50.940;6.940;2023-06-24T10:20:25;4.20;;;3.80;;
13455;SDS011;6800;50.940;6.940;2023-06-24T10:24:40;5.13;;;4.63;;
13455;SDS011;6800;50.940;6.940;2023-06-24T10:33:11;5.47;;;4.85;;
13455;SDS011;6800;50.940;6.940;2023-06-24T10:37:13;4.03;;;3.63;;
13455;SDS011;6800;50.940;6.940;2023-06-24T10:41:18;4.60;;;4.22;;
13455;SDS011;6800;50.940;6.940;2023-06-24T10:45:20;4.22;;;3.83;;
13455;SDS011;6800;50.940;6.940;2023-06-24T10:49:23;4.40;;;4.00;;
13455;SDS011;6800;50.940;6.940;2023-06-24T10:53:24;4.10;;;3.70;;
13455;SDS011;6800;50.940;6.940;2023-06-24T10:57:26;5.20;;;4.82;;
13455;SDS011;6800;50.940;6.940;2023-06-24T11:01:28;3.53;;;2.85;;
13455;SDS011;6800;50.940;6.940;2023-06-24T11:05:30;2.72;;;2.53;;
13455;SDS011;6800;50.940;6.940;2023-06-24T11:09:32;3.25;;;2.53;;
13455;SDS011;6800;50.940;6.940;2023-06-24T11:13:33;3.42;;;2.90;;
13455;SDS011;6800;50.940;6.940;2023-06-24T11:17:35;3.53;;;3.22;;
13455;SDS011;6800;50.940;6.940;2023-06-24T11:21:37;3.25;;;2.92;;
13455;SDS011;6800;50.940;6.940;2023-06-24T11:25:39;5.50;;;3.28;;
13455;SDS011;6800;50.940;6.940;2023-06-24T11:29:42;4.85;;;3.40;;
13455;SDS011;6800;50.940;6.940;2023-06-24T11:33:48;4.13;;;3.20;;
13455;SDS011;6800;50.940;6.940;2023-06-24T11:37:50;4.47;;;3.47;;
13455;SDS011;6800;50.940;6.940;2023-06-24T11:41:52;5.30;;;3.50;;
13455;SDS011;6800;50.940;6.940;2023-06-24T11:45:53;5.13;;;3.80;;
13455;SDS011;6800;50.940;6.940;2023-06-24T11:49:55;3.85;;;3.38;;
13455;SDS011;6800;50.940;6.940;2023-06-24T11:54:02;3.97;;;3.65;;
13455;SDS011;6800;50.940;6.940;2023-06-24T11:58:04;4.57;;;3.75;;
13455;SDS011;6800;50.940;6.940;2023-06-24T12:02:06;5.45;;;3.65;;
13455;SDS011;6800;50.940;6.940;2023-06-24T12:06:07;3.67;;;3.38;;
13455;SDS011;6800;50.940;6.940;2023-06-24T12:10:09;4.82;;;3.75;;
13455;SDS011;6800;50.940;6.940;2023-06-24T12:14:10;5.07;;;3.40;;
13455;SDS011;6800;50.940;6.940;2023-06-24T12:18:12;4.60;;;3.80;;
13455;SDS011;6800;50.940;6.940;2023-06-24T12:22:14;4.18;;;3.50;;
13455;SDS011;6800;50.940;6.940;2023-06-24T12:26:15;5.15;;;3.85;;
13455;SDS011;6800;50.940;6.940;2023-06-24T12:30:17;6.60;;;4.20;;
13455;SDS011;6800;50.940;6.940;2023-06-24T12:34:18;4.47;;;3.90;;
13455;SDS011;6800;50.940;6.940;2023-06-24T12:38:21;5.88;;;4.45;;
13455;SDS011;6800;50.940;6.940;2023-06-24T12:42:23;7.95;;;4.15;;
13455;SDS011;6800;50.940;6.940;2023-06-24T12:46:26;5.28;;;4.25;;
13455;SDS011;6800;50.940;6.940;2023-06-24T12:50:27;4.40;;;4.10;;
13455;SDS011;6800;50.940;6.940;2023-06-24T12:54:29;4.93;;;3.95;;
13455;SDS011;6800;50.940;6.940;2023-06-24T12:58:30;4.60;;;4.15;;
13455;SDS011;6800;50.940;6.940;2023-06-24T13:02:32;5.05;;;4.43;;
13455;SDS011;6800;50.940;6.940;2023-06-24T13:06:33;5.55;;;3.70;;
13455;SDS011;6800;50.940;6.940;2023-06-24T13:10:35;6.47;;;4.10;;
13455;SDS011;6800;50.940;6.940;2023-06-24T13:14:37;4.93;;;4.40;;
13455;SDS011;6800;50.940;6.940;2023-06-24T13:18:38;4.65;;;3.65;;
13455;SDS011;6800;50.940;6.940;2023-06-24T13:22:39;4.43;;;3.80;;
13455;SDS011;6800;50.940;6.940;2023-06-24T13:26:41;4.85;;;4.10;;
13455;SDS011;6800;50.940;6.940;2023-06-24T13:30:42;5.05;;;4.40;;
13455;SDS011;6800;50.940;6.940;2023-06-24T13:34:44;5.20;;;4.43;;
13455;SDS011;6800;50.940;6.940;2023-06-24T13:38:45;8.15;;;7.30;;
13455;SDS011;6800;50.940;6.940;2023-06-24T13:42:47;4.35;;;3.90;;
13455;SDS011;6800;50.940;6.940;2023-06-24T13:46:48;5.05;;;4.03;;
13455;SDS011;6800;50.940;6.940;2023-06-24T13:50:51;5.80;;;4.10;;
13455;SDS011;6800;50.940;6.940;2023-06-24T13:54:52;5.05;;;4.20;;
13455;SDS011;6800;50.940;6.940;2023-06-24T13:58:54;4.90;;;3.75;;
13455;SDS011;6800;50.940;6.940;2023-06-24T14:02:55;4.85;;;4.35;;
13455;SDS011;6800;50.940;6.940;2023-06-24T14:06:57;5.40;;;4.00;;
13455;SDS011;6800;50.940;6.940;2023-06-24T14:10:59;5.72;;;5.22;;
13455;SDS011;6800;50.940;6.940;2023-06-24T14:15:01;4.95;;;4.55;;
13455;SDS011;6800;50.940;6.940;2023-06-24T14:19:02;5.05;;;4.75;;
13455;SDS011;6800;50.940;6.940;2023-06-24T14:23:04;5.03;;;4.63;;
13455;SDS011;6800;50.940;6.940;2023-06-24T14:27:06;5.05;;;4.45;;
13455;SDS011;6800;50.940;6.940;2023-06-24T14:31:07;6.07;;;4.75;;
13455;SDS011;6800;50.940;6.940;2023-06-24T14:35:09;4.60;;;4.20;;
13455;SDS011;6800;50.940;6.940;2023-06-24T14:39:13;3.90;;;3.50;;
13455;SDS011;6800;50.940;6.940;2023-06-24T14:43:17;3.70;;;3.40;;
13455;SDS011;6800;50.940;6.940;2023-06-24T14:47:20;3.80;;;3.50;;
13455;SDS011;6800;50.940;6.940;2023-06-24T14:51:21;4.25;;;3.80;;
13455;SDS011;6800;50.940;6.940;2023-06-24T14:55:23;4.40;;;4.00;;
13455;SDS011;6800;50.940;6.940;2023-06-24T14:59:24;4.07;;;3.70;;
13455;SDS011;6800;50.940;6.940;2023-06-24T15:03:26;3.88;;;3.58;;
13455;SDS011;6800;50.940;6.940;2023-06-24T15:07:27;3.80;;;3.40;;
13455;SDS011;6800;50.940;6.940;2023-06-24T15:11:29;4.07;;;3.78;;
13455;SDS011;6800;50.940;6.940;2023-06-24T15:15:30;4.10;;;3.80;;
13455;SDS011;6800;50.940;6.940;2023-06-24T15:19:32;5.47;;;3.58;;
13455;SDS011;6800;50.940;6.940;2023-06-24T15:23:33;3.95;;;3.65;;
13455;SDS011;6800;50.940;6.940;2023-06-24T15:27:38;6.20;;;4.03;;
13455;SDS011;6800;50.940;6.940;2023-06-24T15:31:40;4.40;;;4.00;;
13455;SDS011;6800;50.940;6.940;2023-06-24T15:35:41;4.03;;;3.72;;
13455;SDS011;6800;50.940;6.940;2023-06-24T15:39:43;4.20;;;3.85;;
13455;SDS011;6800;50.940;6.940;2023-06-24T15:43:44;4.70;;;4.30;;
13455;SDS011;6800;50.940;6.940;2023-06-24T15:47:46;4.20;;;3.90;;
13455;SDS011;6800;50.940;6.940;2023-06-24T15:51:48;7.07;;;3.53;;
13455;SDS011;6800;50.940;6.940;2023-06-24T15:55:49;3.47;;;3.17;;
13455;SDS011;6800;50.940;6.940;2023-06-24T15:59:51;3.10;;;2.80;;
13455;SDS011;6800;50.940;6.940;2023-06-24T16:03:53;4.30;;;3.35;;
13455;SDS011;6800;50.940;6.940;2023-06-24T16:07:54;6.82;;;4.25;;
13455;SDS011;6800;50.940;6.940;2023-06-24T16:11:55;3.63;;;3.33;;
13455;SDS011;6800;50.940;6.940;2023-06-24T16:15:57;4.30;;;3.97;;
13455;SDS011;6800;50.940;6.940;2023-06-24T16:19:59;4.38;;;3.97;;
13455;SDS011;6800;50.940;6.940;2023-06-24T16:24:00;2.78;;;2.55;;
13455;SDS011;6800;50.940;6.940;2023-06-24T16:28:02;3.65;;;2.83;;
13455;SDS011;6800;50.940;6.940;2023-06-24T16:32:03;3.28;;;2.97;;
13455;SDS011;6800;50.940;6.940;2023-06-24T16:36:05;3.22;;;2.92;;
13455;SDS011;6800;50.940;6.940;2023-06-24T16:40:07;2.70;;;2.50;;
13455;SDS011;6800;50.940;6.940;2023-06-24T16:44:09;2.85;;;2.50;;
13455;SDS011;6800;50.940;6.940;2023-06-24T16:48:10;2.80;;;2.40;;
13455;SDS011;6800;50.940;6.940;2023-06-24T16:52:11;3.33;;;3.03;;
13455;SDS011;6800;50.940;6.940;2023-06-24T16:56:13;3.92;;;3.38;;
13455;SDS011;6800;50.940;6.940;2023-06-24T17:00:14;4.93;;;2.38;;
13455;SDS011;6800;50.940;6.940;2023-06-24T17:04:16;3.03;;;2.50;;
13455;SDS011;6800;50.940;6.940;2023-06-24T17:08:18;2.58;;;2.38;;
13455;SDS011;6800;50.940;6.940;2023-06-24T17:12:19;3.05;;;2.75;;
13455;SDS011;6800;50.940;6.940;2023-06-24T17:16:20;3.30;;;3.00;;
13455;SDS011;6800;50.940;6.940;2023-06-24T17:20:22;2.90;;;2.60;;
13455;SDS011;6800;50.940;6.940;2023-06-24T17:24:24;2.70;;;2.20;;
13455;SDS011;6800;50.940;6.940;2023-06-24T17:28:25;2.50;;;2.30;;
13455;SDS011;6800;50.940;6.940;2023-06-24T17:32:26;5.65;;;4.40;;
13455;SDS011;6800;50.940;6.940;2023-06-24T17:36:28;3.20;;;2.90;;
13455;SDS011;6800;50.940;6.940;2023-06-24T17:40:29;3.28;;;2.85;;
13455;SDS011;6800;50.940;6.940;2023-06-24T17:44:31;3.88;;;3.05;;
13455;SDS011;6800;50.940;6.940;2023-06-24T17:48:32;2.55;;;2.30;;
13455;SDS011;6800;50.940;6.940;2023-06-24T17:52:34;2.67;;;2.47;;
13455;SDS011;6800;50.940;6.940;2023-06-24T17:56:35;2.90;;;2.60;;
13455;SDS011;6800;50.940;6.940;2023-06-24T18:00:38;4.13;;;3.72;;
13455;SDS011;6800;50.940;6.940;2023-06-24T18:04:42;3.03;;;2.70;;
13455;SDS011;6800;50.940;6.940;2023-06-24T18:08:44;5.28;;;2.80;;
13455;SDS011;6800;50.940;6.940;2023-06-24T18:12:45;3.58;;;3.05;;
13455;SDS011;6800;50.940;6.940;2023-06-24T18:16:47;4.15;;;3.42;;
13455;SDS011;6800;50.940;6.940;2023-06-24T18:20:50;3.40;;;2.70;;
13455;SDS011;6800;50.940;6.940;2023-06-24T18:24:52;3.10;;;2.67;;
13455;SDS011;6800;50.940;6.940;2023-06-24T18:28:54;3.60;;;2.63;;
13455;SDS011;6800;50.940;6.940;2023-06-24T18:32:55;2.92;;;2.55;;
13455;SDS011;6800;50.940;6.940;2023-06-24T18:36:57;4.20;;;3.15;;
13455;SDS011;6800;50.940;6.940;2023-06-24T18:40:58;3.92;;;2.83;;
13455;SDS011;6800;50.940;6.940;2023-06-24T18:45:00;4.18;;;2.80;;
13455;SDS011;6800;50.940;6.940;2023-06-24T18:49:01;3.97;;;2.97;;
13455;SDS011;6800;50.940;6.940;2023-06-24T18:53:02;6.55;;;3.83;;
13455;SDS011;6800;50.940;6.940;2023-06-24T18:57:04;3.13;;;2.60;;
13455;SDS011;6800;50.940;6.940;2023-06-24T19:01:05;3.35;;;2.88;;
13455;SDS011;6800;50.940;6.940;2023-06-24T19:05:07;3.28;;;2.97;;
13455;SDS011;6800;50.940;6.940;2023-06-24T19:09:08;5.53;;;3.67;;
13455;SDS011;6800;50.940;6.940;2023-06-24T19:13:10;4.28;;;3.35;;
13455;SDS011;6800;50.940;6.940;2023-06-24T19:17:11;4.60;;;3.75;;
13455;SDS011;6800;50.940;6.940;2023-06-24T19:21:13;4.28;;;3.28;;
13455;SDS011;6800;50.940;6.940;2023-06-24T19:25:15;4.05;;;3.60;;
13455;SDS011;6800;50.940;6.940;2023-06-24T19:29:17;3.45;;;3.08;;
13455;SDS011;6800;50.940;6.940;2023-06-24T19:33:18;3.25;;;2.95;;
13455;SDS011;6800;50.940;6.940;2023-06-24T19:37:20;3.28;;;2.95;;
13455;SDS011;6800;50.940;6.940;2023-06-24T19:41:21;4.15;;;2.78;;
13455;SDS011;6800;50.940;6.940;2023-06-24T19:45:23;2.70;;;2.50;;
13455;SDS011;6800;50.940;6.940;2023-06-24T19:49:24;3.30;;;3.00;;
13455;SDS011;6800;50.940;6.940;2023-06-24T19:53:26;3.00;;;2.53;;
13455;SDS011;6800;50.940;6.940;2023-06-24T19:57:27;3.70;;;3.30;;
13455;SDS011;6800;50.940;6.940;2023-06-24T20:01:29;3.50;;;3.20;;
13455;SDS011;6800;50.940;6.940;2023-06-24T20:05:31;3.40;;;3.10;;
13455;SDS011;6800;50.940;6.940;2023-06-24T20:09:38;3.65;;;3.35;;
13455;SDS011;6800;50.940;6.940;2023-06-24T20:13:39;4.40;;;3.75;;
13455;SDS011;6800;50.940;6.940;2023-06-24T20:17:42;4.38;;;4.00;;
13455;SDS011;6800;50.940;6.940;2023-06-24T20:21:45;4.22;;;3.83;;
13455;SDS011;6800;50.940;6.940;2023-06-24T20:25:46;4.90;;;3.75;;
13455;SDS011;6800;50.940;6.940;2023-06-24T20:29:48;4.38;;;3.97;;
13455;SDS011;6800;50.940;6.940;2023-06-24T20:33:49;3.47;;;3.17;;
13455;SDS011;6800;50.940;6.940;2023-06-24T20:37:50;4.00;;;3.70;;
13455;SDS011;6800;50.940;6.940;2023-06-24T20:41:52;4.28;;;3.88;;
13455;SDS011;6800;50.940;6.940;2023-06-24T20:45:54;4.95;;;4.50;;
13455;SDS011;6800;50.940;6.940;2023-06-24T20:49:55;5.05;;;4.25;;
13455;SDS011;6800;50.940;6.940;2023-06-24T20:53:57;7.43;;;6.32;;
13455;SDS011;6800;50.940;6.940;2023-06-24T20:57:58;5.55;;;4.95;;
13455;SDS011;6800;50.940;6.940;2023-06-24T21:02:01;6.05;;;5.43;;
13455;SDS011;6800;50.940;6.940;2023-06-24T21:06:03;6.90;;;6.22;;
13455;SDS011;6800;50.940;6.940;2023-06-24T21:10:05;6.63;;;6.03;;
13455;SDS011;6800;50.940;6.940;2023-06-24T21:14:06;6.78;;;6.07;;
13455;SDS011;6800;50.940;6.940;2023-06-24T21:18:08;5.85;;;5.25;;
13455;SDS011;6800;50.940;6.940;2023-06-24T21:22:10;5.45;;;4.88;;
13455;SDS011;6800;50.940;6.940;2023-06-24T21:26:12;7.38;;;6.68;;
13455;SDS011;6800;50.940;6.940;2023-06-24T21:30:13;5.38;;;4.88;;
13455;SDS011;6800;50.940;6.940;2023-06-24T21:34:15;5.15;;;4.65;;
13455;SDS011;6800;50.940;6.940;2023-06-24T21:38:16;4.88;;;4.47;;
13455;SDS011;6800;50.940;6.940;2023-06-24T21:42:19;5.03;;;4.47;;
13455;SDS011;6800;50.940;6.940;2023-06-24T21:46:20;6.47;;;4.95;;
13455;SDS011;6800;50.940;6.940;2023-06-24T21:50:22;6.20;;;5.60;;
13455;SDS011;6800;50.940;6.940;2023-06-24T21:54:23;5.95;;;5.35;;
13455;SDS011;6800;50.940;6.940;2023-06-24T21:58:24;6.28;;;4.95;;
13455;SDS011;6800;50.940;6.940;2023-06-24T22:02:26;9.27;;;6.45;;
13455;SDS011;6800;50.940;6.940;2023-06-24T22:06:27;6.75;;;5.72;;
13455;SDS011;6800;50.940;6.940;2023-06-24T22:10:29;5.82;;;5.30;;
13455;SDS011;6800;50.940;6.940;2023-06-24T22:14:30;6.25;;;5.65;;
13455;SDS011;6800;50.940;6.940;2023-06-24T22:18:32;7.32;;;6.10;;
13455;SDS011;6800;50.940;6.940;2023-06-24T22:22:33;8.63;;;6.85;;
13455;SDS011;6800;50.940;6.940;2023-06-24T22:26:35;7.57;;;6.60;;
13455;SDS011;6800;50.940;6.940;2023-06-24T22:30:36;8.30;;;6.63;;
13455;SDS011;6800;50.940;6.940;2023-06-24T22:34:38;8.23;;;7.07;;
13455;SDS011;6800;50.940;6.940;2023-06-24T22:38:39;7.60;;;6.88;;
13455;SDS011;6800;50.940;6.940;2023-06-24T22:42:40;6.90;;;6.20;;
13455;SDS011;6800;50.940;6.940;2023-06-24T22:46:42;8.80;;;6.88;;
13455;SDS011;6800;50.940;6.940;2023-06-24T22:50:43;7.18;;;6.47;;
13455;SDS011;6800;50.940;6.940;2023-06-24T22:54:45;7.90;;;7.10;;
13455;SDS011;6800;50.940;6.940;2023-06-24T22:58:47;9.20;;;7.03;;
13455;SDS011;6800;50.940;6.940;2023-06-24T23:02:48;6.45;;;5.78;;
13455;SDS011;6800;50.940;6.940;2023-06-24T23:06:50;10.90;;;7.50;;
13455;SDS011;6800;50.940;6.940;2023-06-24T23:10:52;10.07;;;9.07;;
13455;SDS011;6800;50.940;6.940;2023-06-24T23:14:54;10.52;;;8.65;;
13455;SDS011;6800;50.940;6.940;2023-06-24T23:18:57;11.38;;;9.55;;
13455;SDS011;6800;50.940;6.940;2023-06-24T23:22:58;10.82;;;8.30;;
13455;SDS011;6800;50.940;6.940;2023-06-24T23:27:00;6.82;;;6.00;;
13455;SDS011;6800;50.940;6.940;2023-06-24T23:31:04;8.70;;;7.63;;
13455;SDS011;6800;50.940;6.940;2023-06-24T23:35:09;8.90;;;6.78;;
13455;SDS011;6800;50.940;6.940;2023-06-24T23:39:12;7.78;;;5.55;;
13455;SDS011;6800;50.940;6.940;2023-06-24T23:43:14;5.90;;;4.93;;
13455;SDS011;6800;50.940;6.940;2023-06-24T23:47:16;6.30;;;4.88;;
13455;SDS011;6800;50.940;6.940;2023-06-24T23:51:17;7.30;;;6.60;;
13455;SDS011;6800;50.940;6.940;2023-06-24T23:55:19;6.85;;;6.13;;
13455;SDS011;6800;50.940;6.940;2023-06-24T23:59:21;6.32;;;5.35;;
